createdAt,value
2022-08-24T00:02:58.898Z,20.09
2022-08-24T00:08:00.571Z,20.08
2022-08-24T00:13:02.218Z,20.09
2022-08-24T00:18:04.069Z,20.05
2022-08-24T00:23:06.760Z,20.06
2022-08-24T00:28:08.395Z,20.02
2022-08-24T00:33:10.124Z,20.04
2022-08-24T00:38:11.732Z,20.02
2022-08-24T00:43:13.779Z,20.01
2022-08-24T00:48:21.049Z,20.05
2022-08-24T00:53:33.839Z,20.03
2022-08-24T00:58:46.448Z,20.06
2022-08-24T01:03:57.130Z,19.95
2022-08-24T01:08:59.890Z,19.93
2022-08-24T01:14:03.505Z,19.96
2022-08-24T01:19:09.516Z,19.98
2022-08-24T01:24:12.704Z,19.96
2022-08-24T01:29:17.630Z,20.02
2022-08-24T01:34:21.416Z,19.91
2022-08-24T01:39:45.985Z,19.94
2022-08-24T01:44:48.072Z,19.92
2022-08-24T01:49:50.444Z,19.85
2022-08-24T01:54:55.880Z,19.90
2022-08-24T01:59:58.985Z,19.83
2022-08-24T02:05:00.860Z,19.81
2022-08-24T02:10:03.509Z,19.79
2022-08-24T02:15:07.901Z,19.76
2022-08-24T02:20:09.972Z,19.70
2022-08-24T02:25:11.745Z,19.66
2022-08-24T02:30:16.370Z,19.69
2022-08-24T02:35:18.316Z,19.55
2022-08-24T02:40:21.817Z,19.48
2022-08-24T02:45:24.668Z,19.45
2022-08-24T02:50:27.656Z,19.35
2022-08-24T02:55:29.311Z,19.28
2022-08-24T03:00:31.746Z,19.33
2022-08-24T03:05:34.134Z,19.22
2022-08-24T03:10:36.287Z,19.20
2022-08-24T03:15:39.390Z,19.20
2022-08-24T03:20:41.124Z,19.16
2022-08-24T03:25:43.113Z,19.06
2022-08-24T03:30:48.431Z,19.09
2022-08-24T03:35:52.442Z,19.10
2022-08-24T03:40:56.767Z,18.99
2022-08-24T03:45:59.246Z,19.08
2022-08-24T03:51:01.043Z,19.08
2022-08-24T03:56:06.970Z,19.00
2022-08-24T04:01:10.202Z,19.03
2022-08-24T04:06:13.892Z,19.08
2022-08-24T04:11:20.706Z,19.13
2022-08-24T04:16:23.194Z,19.06
2022-08-24T04:21:35.358Z,19.10
2022-08-24T04:26:45.115Z,19.21
2022-08-24T04:31:49.164Z,19.22
2022-08-24T04:36:51.338Z,19.33
2022-08-24T04:41:53.319Z,19.41
2022-08-24T04:46:56.762Z,19.46
2022-08-24T04:51:58.588Z,19.52
2022-08-24T04:57:00.641Z,19.60
2022-08-24T05:02:02.451Z,19.69
2022-08-24T05:07:05.113Z,19.77
2022-08-24T05:12:08.057Z,19.86
2022-08-24T05:17:13.543Z,20.08
2022-08-24T05:22:15.119Z,20.19
2022-08-24T05:27:22.699Z,20.51
2022-08-24T05:32:27.096Z,20.72
2022-08-24T05:37:29.900Z,20.68
2022-08-24T05:42:50.583Z,20.51
2022-08-24T05:47:52.770Z,20.41
2022-08-24T05:53:24.736Z,20.57
2022-08-24T05:58:31.183Z,20.52
2022-08-24T06:03:37.424Z,20.63
2022-08-24T06:08:44.297Z,20.75
2022-08-24T06:13:46.572Z,20.79
2022-08-24T06:18:55.924Z,20.60
2022-08-24T06:24:00.167Z,20.79
2022-08-24T06:29:02.414Z,20.98
2022-08-24T06:34:04.844Z,21.18
2022-08-24T06:39:09.559Z,21.20
2022-08-24T06:44:15.158Z,21.35
2022-08-24T06:49:24.803Z,21.31
2022-08-24T06:54:26.417Z,21.39
2022-08-24T06:59:29.030Z,21.25
2022-08-24T07:04:31.004Z,21.38
2022-08-24T07:10:00.488Z,21.52
2022-08-24T07:15:03.442Z,21.50
2022-08-24T07:20:11.658Z,21.72
2022-08-24T07:25:32.186Z,21.82
2022-08-24T07:30:34.198Z,21.59
2022-08-24T07:35:38.538Z,21.79
2022-08-24T07:41:05.067Z,22.00
2022-08-24T07:46:01.968Z,22.00
2022-08-24T07:51:11.622Z,21.96
2022-08-24T07:56:14.669Z,21.89
2022-08-24T08:01:23.455Z,21.87
2022-08-24T08:06:26.124Z,21.97
2022-08-24T08:11:32.409Z,22.13
2022-08-24T08:16:34.116Z,22.24
2022-08-24T08:22:03.159Z,22.43
2022-08-24T08:27:08.385Z,22.32
2022-08-24T08:32:16.835Z,22.37
2022-08-24T08:37:19.751Z,22.56
2022-08-24T08:42:33.477Z,22.66
2022-08-24T08:48:00.245Z,22.83
2022-08-24T08:53:44.107Z,23.04
2022-08-24T08:59:01.542Z,22.99
2022-08-24T09:04:21.713Z,23.01
2022-08-24T09:10:08.800Z,23.08
2022-08-24T09:15:29.145Z,23.12
2022-08-24T09:20:50.751Z,22.96
2022-08-24T09:25:54.866Z,23.05
2022-08-24T09:36:54.394Z,23.45
2022-08-24T09:42:13.951Z,23.58
2022-08-24T09:47:37.375Z,23.55
2022-08-24T09:52:51.139Z,23.49
2022-08-24T09:58:29.807Z,23.60
2022-08-24T10:03:54.793Z,23.65
2022-08-24T10:09:08.858Z,23.75
2022-08-24T10:14:46.669Z,23.79
2022-08-24T10:20:16.310Z,23.75
2022-08-24T10:25:39.467Z,24.02
2022-08-24T10:30:44.498Z,24.23
2022-08-24T10:36:10.844Z,24.24
2022-08-24T10:41:15.136Z,24.14
2022-08-24T10:46:25.766Z,24.25
2022-08-24T10:51:45.593Z,24.24
2022-08-24T10:56:58.872Z,24.22
2022-08-24T11:02:08.424Z,24.22
2022-08-24T11:07:19.152Z,24.14
2022-08-24T11:12:25.560Z,23.92
2022-08-24T11:17:29.699Z,24.14
2022-08-24T11:22:40.813Z,23.97
2022-08-24T11:27:52.066Z,23.83
2022-08-24T11:32:53.572Z,23.90
2022-08-24T11:38:07.432Z,24.05
2022-08-24T11:43:22.515Z,24.13
2022-08-24T11:48:27.462Z,24.10
2022-08-24T11:53:55.659Z,24.14
2022-08-24T11:59:03.582Z,24.12
2022-08-24T12:04:37.312Z,24.29
2022-08-24T12:10:05.786Z,24.32
2022-08-24T12:15:16.631Z,23.95
2022-08-24T12:20:29.788Z,24.29
2022-08-24T12:25:50.538Z,24.23
2022-08-24T12:30:52.945Z,24.48
2022-08-24T12:36:00.276Z,24.43
2022-08-24T12:41:14.622Z,24.64
2022-08-24T12:46:25.003Z,24.42
2022-08-24T12:51:56.458Z,24.72
2022-08-24T12:57:10.750Z,24.69
2022-08-24T13:02:15.222Z,24.73
2022-08-24T13:07:19.412Z,24.49
2022-08-24T13:12:42.720Z,24.52
2022-08-24T13:17:44.321Z,24.58
2022-08-24T13:23:13.025Z,24.64
2022-08-24T13:28:20.835Z,24.71
2022-08-24T13:33:28.287Z,24.72
2022-08-24T13:38:35.886Z,24.64
2022-08-24T13:44:09.701Z,24.66
2022-08-24T13:49:24.490Z,24.70
2022-08-24T13:54:33.705Z,24.52
2022-08-24T13:59:53.481Z,24.75
2022-08-24T14:05:27.144Z,24.79
2022-08-24T14:11:16.794Z,24.76
2022-08-24T14:16:57.273Z,24.85
2022-08-24T14:22:10.632Z,24.70
2022-08-24T14:27:35.010Z,24.72
2022-08-24T14:32:40.212Z,24.64
2022-08-24T14:37:58.400Z,24.70
2022-08-24T14:43:21.846Z,24.47
2022-08-24T14:48:38.309Z,24.61
2022-08-24T14:53:51.631Z,24.59
2022-08-24T14:59:14.580Z,24.29
2022-08-24T15:04:38.465Z,24.50
2022-08-24T15:09:42.735Z,24.32
2022-08-24T15:14:51.736Z,24.33
2022-08-24T15:20:00.825Z,24.29
2022-08-24T15:25:29.034Z,24.23
2022-08-24T15:30:33.823Z,24.36
2022-08-24T15:35:38.947Z,24.29
2022-08-24T15:40:40.695Z,24.31
2022-08-24T15:45:51.390Z,24.28
2022-08-24T15:50:55.015Z,24.25
2022-08-24T15:55:56.981Z,24.23
2022-08-24T16:01:30.864Z,24.17
2022-08-24T16:06:32.362Z,24.24
2022-08-24T16:11:47.175Z,24.19
2022-08-24T16:16:48.807Z,24.20
2022-08-24T16:22:00.941Z,24.31
2022-08-24T16:27:05.442Z,24.22
2022-08-24T16:32:30.274Z,24.23
2022-08-24T16:37:39.361Z,24.08
2022-08-24T16:42:41.082Z,24.10
2022-08-24T16:47:42.844Z,24.16
2022-08-24T16:52:44.391Z,24.24
2022-08-24T16:57:47.664Z,24.20
2022-08-24T17:02:49.718Z,24.10
2022-08-24T17:07:52.056Z,24.08
2022-08-24T17:12:54.041Z,23.99
2022-08-24T17:18:03.805Z,24.07
2022-08-24T17:23:06.102Z,23.96
2022-08-24T17:28:09.218Z,23.88
2022-08-24T17:33:10.951Z,23.92
2022-08-24T17:38:12.649Z,23.91
2022-08-24T17:43:15.190Z,23.88
2022-08-24T17:48:22.947Z,23.78
2022-08-24T17:53:24.548Z,23.71
2022-08-24T17:58:26.099Z,23.78
2022-08-24T18:03:27.646Z,23.70
2022-08-24T18:08:29.212Z,23.58
2022-08-24T18:13:31.007Z,23.60
2022-08-24T18:18:32.714Z,23.56
2022-08-24T18:23:34.795Z,23.48
2022-08-24T18:28:45.182Z,23.42
2022-08-24T18:33:46.781Z,23.37
2022-08-24T18:38:48.358Z,23.33
2022-08-24T18:43:49.942Z,23.29
2022-08-24T18:48:51.837Z,23.26
2022-08-24T18:54:06.588Z,23.22
2022-08-24T18:59:12.452Z,23.16
2022-08-24T19:04:14.327Z,23.15
2022-08-24T19:09:15.959Z,23.08
2022-08-24T19:14:17.755Z,23.02
2022-08-24T19:19:20.178Z,22.96
2022-08-24T19:24:25.625Z,22.96
2022-08-24T19:29:54.050Z,22.88
2022-08-24T19:34:49.980Z,22.90
2022-08-24T19:39:51.652Z,22.81
2022-08-24T19:45:13.839Z,22.78
2022-08-24T19:50:21.267Z,22.65
2022-08-24T19:55:23.042Z,22.62
2022-08-24T20:00:28.774Z,22.58
2022-08-24T20:05:30.751Z,22.56
2022-08-24T20:10:33.722Z,22.49
2022-08-24T20:15:35.874Z,22.47
2022-08-24T20:20:38.131Z,22.36
2022-08-24T20:25:40.482Z,22.40
2022-08-24T20:30:44.476Z,22.23
2022-08-24T20:35:46.798Z,22.24
2022-08-24T20:40:49.263Z,22.14
2022-08-24T20:45:51.869Z,22.12
2022-08-24T20:50:53.854Z,22.14
2022-08-24T20:55:56.498Z,22.15
2022-08-24T21:00:58.352Z,22.07
2022-08-24T21:06:00.688Z,21.99
2022-08-24T21:11:02.339Z,21.91
2022-08-24T21:16:06.654Z,21.89
2022-08-24T21:21:09.648Z,21.83
2022-08-24T21:26:13.269Z,21.89
2022-08-24T21:31:15.074Z,21.72
2022-08-24T21:36:16.917Z,21.78
2022-08-24T21:41:18.597Z,21.63
2022-08-24T21:46:21.644Z,21.60
2022-08-24T21:51:23.323Z,21.54
2022-08-24T21:56:27.855Z,21.47
2022-08-24T22:01:29.495Z,21.40
2022-08-24T22:06:32.057Z,21.45
2022-08-24T22:11:33.906Z,21.35
2022-08-24T22:16:37.326Z,21.42
2022-08-24T22:21:44.678Z,21.28
2022-08-24T22:26:49.408Z,21.17
2022-08-24T22:31:51.107Z,21.24
2022-08-24T22:36:53.274Z,21.22
2022-08-24T22:41:55.528Z,21.09
2022-08-24T22:46:59.237Z,21.02
2022-08-24T22:52:00.808Z,20.84
2022-08-24T22:57:03.393Z,20.84
2022-08-24T23:02:08.645Z,20.92
2022-08-24T23:07:11.196Z,20.94
2022-08-24T23:12:17.395Z,20.86
2022-08-24T23:17:20.040Z,20.64
2022-08-24T23:22:21.721Z,20.75
2022-08-24T23:27:23.329Z,20.78
2022-08-24T23:32:24.964Z,20.75
2022-08-24T23:37:26.648Z,20.63
2022-08-24T23:42:28.222Z,20.63
2022-08-24T23:47:29.807Z,20.66
2022-08-24T23:52:39.193Z,20.60
2022-08-24T23:57:40.842Z,20.62
